Time;durP1;ratioP1;P1;durP2;ratioP2;P2;SDS_P1;SDS_P2;PMS_P1;PMS_P2;Temp;Humidity;BMP_temperature;BMP_pressure;BME280_temperature;BME280_humidity;BME280_pressure;Samples;Min_cycle;Max_cycle;Signal;HPM_P1;HPM_P2
2021/10/18 00:00:09;;;;;;;31.17;21.93;;;9.00;99.90;;;;;;5033213;28;20427;-57
2021/10/18 00:02:35;;;;;;;26.07;18.20;;;9.00;99.90;;;;;;5032744;28;20870;-57
2021/10/18 00:05:02;;;;;;;31.20;19.00;;;9.00;99.90;;;;;;5044437;28;20424;-56
2021/10/18 00:07:28;;;;;;;32.07;21.40;;;9.00;99.90;;;;;;5033549;28;20409;-54
2021/10/18 00:09:53;;;;;;;30.90;21.87;;;9.10;99.90;;;;;;5032544;28;20474;-55
2021/10/18 00:12:19;;;;;;;27.77;19.87;;;9.20;99.90;;;;;;5033468;28;20412;-57
2021/10/18 00:14:44;;;;;;;26.13;17.40;;;9.30;99.90;;;;;;5033129;28;20197;-57
2021/10/18 00:17:10;;;;;;;24.23;17.30;;;9.30;99.90;;;;;;5032927;28;20260;-56
2021/10/18 00:19:36;;;;;;;26.93;18.30;;;9.40;99.90;;;;;;5032445;28;20187;-56
2021/10/18 00:22:02;;;;;;;27.07;18.80;;;9.40;99.90;;;;;;5033367;28;20909;-58
2021/10/18 00:24:28;;;;;;;24.40;16.97;;;9.40;99.90;;;;;;5033354;28;20580;-56
2021/10/18 00:26:53;;;;;;;28.13;18.20;;;9.20;99.90;;;;;;5032880;28;20496;-56
2021/10/18 00:29:19;;;;;;;23.87;16.03;;;9.30;99.90;;;;;;5033002;28;20171;-57
2021/10/18 00:31:44;;;;;;;30.97;18.90;;;9.30;99.90;;;;;;5033172;28;20178;-57
2021/10/18 00:34:10;;;;;;;27.87;17.60;;;9.40;99.90;;;;;;5033262;28;20210;-57
2021/10/18 00:36:36;;;;;;;27.93;17.33;;;9.50;99.90;;;;;;5033330;28;20665;-58
2021/10/18 00:39:02;;;;;;;32.00;19.40;;;9.50;99.90;;;;;;5032981;28;20178;-59
2021/10/18 00:41:27;;;;;;;23.30;15.77;;;9.60;99.90;;;;;;5032777;28;20647;-57
2021/10/18 00:43:55;;;;;;;24.10;15.60;;;9.70;99.90;;;;;;5032609;28;20500;-56
2021/10/18 00:46:22;;;;;;;27.00;17.13;;;9.80;99.90;;;;;;5033175;28;20179;-57
2021/10/18 00:48:50;;;;;;;28.23;18.87;;;9.60;99.90;;;;;;5033287;28;20788;-57
2021/10/18 00:51:17;;;;;;;27.00;18.33;;;9.60;99.90;;;;;;5033273;28;20800;-58
2021/10/18 00:53:44;;;;;;;23.00;15.57;;;9.60;99.90;;;;;;5033238;28;20410;-58
2021/10/18 00:56:11;;;;;;;22.10;16.80;;;9.70;99.90;;;;;;5032560;28;20446;-57
2021/10/18 00:58:36;;;;;;;22.73;15.97;;;9.70;99.90;;;;;;5032644;28;20412;-54
2021/10/18 01:01:02;;;;;;;29.40;18.90;;;9.80;99.90;;;;;;5032978;28;20462;-57
2021/10/18 01:03:28;;;;;;;21.70;15.77;;;9.90;99.90;;;;;;5032963;28;20221;-56
2021/10/18 01:05:54;;;;;;;20.53;15.07;;;9.80;99.90;;;;;;5032964;28;20412;-57
2021/10/18 01:08:20;;;;;;;23.23;17.03;;;9.70;99.90;;;;;;5033185;28;20501;-56
2021/10/18 01:10:46;;;;;;;20.20;14.57;;;9.70;99.90;;;;;;5036117;28;20301;-56
2021/10/18 01:13:11;;;;;;;27.97;17.60;;;9.60;99.90;;;;;;5036720;28;20223;-56
2021/10/18 01:15:37;;;;;;;25.87;19.40;;;9.70;99.90;;;;;;5036868;28;20228;-56
2021/10/18 01:18:03;;;;;;;23.40;16.50;;;9.70;99.90;;;;;;5036682;28;20168;-56
2021/10/18 01:20:37;;;;;;;26.87;17.27;;;9.80;99.90;;;;;;5036648;28;20450;-56
2021/10/18 01:23:03;;;;;;;28.20;17.70;;;9.80;99.90;;;;;;5036581;28;20389;-55
2021/10/18 01:25:29;;;;;;;26.83;19.40;;;9.80;99.90;;;;;;5036561;28;20463;-54
2021/10/18 01:27:56;;;;;;;22.60;16.47;;;10.00;99.90;;;;;;5036323;28;21326;-53
2021/10/18 01:30:22;;;;;;;20.43;14.80;;;9.90;99.90;;;;;;5036361;28;20197;-55
2021/10/18 01:32:49;;;;;;;23.17;16.60;;;10.00;99.90;;;;;;5036118;28;20409;-55
2021/10/18 01:35:14;;;;;;;26.90;18.57;;;10.00;99.90;;;;;;5036304;28;20452;-58
2021/10/18 01:37:40;;;;;;;22.20;16.70;;;10.00;99.90;;;;;;5038504;28;20410;-53
2021/10/18 01:40:08;;;;;;;24.20;17.47;;;9.90;99.90;;;;;;5036079;28;20198;-57
2021/10/18 01:42:34;;;;;;;22.33;16.37;;;9.90;99.90;;;;;;5036232;28;20156;-56
2021/10/18 01:44:59;;;;;;;28.13;20.23;;;9.90;99.90;;;;;;5035980;28;20459;-55
2021/10/18 01:47:27;;;;;;;27.80;19.13;;;9.90;99.90;;;;;;5036933;28;20771;-57
2021/10/18 01:49:54;;;;;;;24.97;16.80;;;9.90;99.90;;;;;;5036309;28;20191;-56
2021/10/18 01:52:19;;;;;;;26.90;18.40;;;10.00;99.90;;;;;;5035987;28;20405;-54
2021/10/18 01:54:46;;;;;;;25.70;18.07;;;10.00;99.90;;;;;;5036011;28;20461;-57
2021/10/18 01:57:11;;;;;;;24.77;16.20;;;10.10;99.90;;;;;;5035655;28;20206;-56
2021/10/18 01:59:37;;;;;;;27.00;19.33;;;10.10;99.90;;;;;;5035672;28;20466;-57
2021/10/18 02:02:03;;;;;;;23.90;16.93;;;10.10;99.90;;;;;;5035889;28;20180;-57
2021/10/18 02:04:28;;;;;;;25.97;17.63;;;10.20;99.90;;;;;;5036120;28;20168;-56
2021/10/18 02:06:54;;;;;;;22.30;15.97;;;10.10;99.90;;;;;;5035666;28;20250;-58
2021/10/18 02:09:19;;;;;;;23.20;16.43;;;10.20;99.90;;;;;;5035597;28;20178;-56
2021/10/18 02:11:45;;;;;;;27.40;19.57;;;10.20;99.90;;;;;;5035325;28;20179;-58
2021/10/18 02:14:10;;;;;;;28.23;17.80;;;10.10;99.90;;;;;;5035405;28;20613;-57
2021/10/18 02:16:36;;;;;;;26.47;17.90;;;9.90;99.90;;;;;;5035499;28;20167;-58
2021/10/18 02:19:02;;;;;;;27.83;20.10;;;9.90;99.90;;;;;;5035454;28;20246;-57
2021/10/18 02:21:27;;;;;;;29.27;19.50;;;9.90;99.90;;;;;;5034451;28;20202;-58
2021/10/18 02:23:53;;;;;;;28.83;20.77;;;9.90;99.90;;;;;;5036072;28;20167;-54
2021/10/18 02:26:18;;;;;;;24.00;17.17;;;9.90;99.90;;;;;;5035187;28;20177;-56
2021/10/18 02:28:44;;;;;;;23.40;16.80;;;9.90;99.90;;;;;;5035200;28;20266;-58
2021/10/18 02:31:10;;;;;;;26.40;18.13;;;9.90;99.90;;;;;;5035171;28;20539;-55
2021/10/18 02:33:36;;;;;;;25.33;17.20;;;9.70;99.90;;;;;;5035644;28;20609;-55
2021/10/18 02:36:02;;;;;;;23.90;16.23;;;9.50;99.90;;;;;;5035148;28;20477;-54
2021/10/18 02:38:28;;;;;;;22.13;16.03;;;9.30;99.90;;;;;;5035501;28;20209;-54
2021/10/18 02:40:53;;;;;;;26.20;16.07;;;9.20;99.90;;;;;;5034642;28;20792;-58
2021/10/18 02:43:20;;;;;;;26.27;16.53;;;9.20;99.90;;;;;;5034883;28;20221;-57
2021/10/18 02:45:48;;;;;;;24.50;16.30;;;9.30;99.90;;;;;;5035491;28;20709;-57
2021/10/18 02:48:14;;;;;;;27.60;17.47;;;9.40;99.90;;;;;;5035333;28;20413;-55
2021/10/18 02:50:40;;;;;;;25.00;17.17;;;9.30;99.90;;;;;;5035082;28;20429;-56
2021/10/18 02:53:06;;;;;;;22.90;14.50;;;9.20;99.90;;;;;;5034720;28;20417;-56
2021/10/18 02:55:32;;;;;;;25.57;17.87;;;9.30;99.90;;;;;;5034914;28;20198;-57
2021/10/18 02:57:57;;;;;;;18.60;14.37;;;9.30;99.90;;;;;;5044222;28;20447;-56
2021/10/18 03:00:23;;;;;;;20.60;13.47;;;9.30;99.90;;;;;;5054364;28;20180;-55
2021/10/18 03:02:49;;;;;;;21.10;14.77;;;9.30;99.90;;;;;;5055176;28;20638;-53
2021/10/18 03:05:14;;;;;;;26.40;17.57;;;9.30;99.90;;;;;;5054935;28;20214;-57
2021/10/18 03:07:40;;;;;;;24.87;16.90;;;9.20;99.90;;;;;;5054548;28;20180;-56
2021/10/18 03:10:06;;;;;;;20.30;14.33;;;9.20;99.90;;;;;;5075689;22;20273;-51
2021/10/18 03:12:33;;;;;;;23.70;16.87;;;9.20;99.90;;;;;;5084552;28;20192;-54
2021/10/18 03:14:59;;;;;;;26.00;17.40;;;9.30;99.90;;;;;;5114697;28;20437;-52
2021/10/18 03:17:25;;;;;;;20.07;14.83;;;9.40;99.90;;;;;;5115302;28;20466;-54
2021/10/18 03:19:51;;;;;;;24.30;15.33;;;9.50;99.90;;;;;;5115031;28;20431;-52
2021/10/18 03:22:16;;;;;;;22.33;15.50;;;9.60;99.90;;;;;;5115021;28;20926;-52
2021/10/18 03:24:42;;;;;;;25.63;17.20;;;9.60;99.90;;;;;;5114937;28;20220;-53
2021/10/18 03:27:08;;;;;;;24.67;16.83;;;9.60;99.90;;;;;;5114319;28;20175;-56
2021/10/18 03:29:33;;;;;;;21.40;13.57;;;9.60;99.90;;;;;;5114420;28;20198;-57
2021/10/18 03:31:59;;;;;;;21.37;15.40;;;9.50;99.90;;;;;;5114226;28;20197;-54
2021/10/18 03:34:24;;;;;;;22.53;16.80;;;9.50;99.90;;;;;;5114391;28;20178;-55
2021/10/18 03:36:50;;;;;;;19.53;13.33;;;9.30;99.90;;;;;;5110992;28;20254;-55
2021/10/18 03:39:15;;;;;;;22.07;14.90;;;9.30;99.90;;;;;;5114721;28;20165;-56
2021/10/18 03:41:41;;;;;;;21.03;14.77;;;9.30;99.90;;;;;;5087376;28;20197;-54
2021/10/18 03:44:07;;;;;;;20.40;14.27;;;9.30;99.90;;;;;;5073654;28;20579;-56
2021/10/18 03:46:32;;;;;;;22.90;14.80;;;9.40;99.90;;;;;;5073644;28;20208;-57
2021/10/18 03:48:58;;;;;;;24.67;16.03;;;9.50;99.90;;;;;;5073789;28;20166;-56
2021/10/18 03:51:24;;;;;;;30.03;19.47;;;9.50;99.90;;;;;;5073496;28;20198;-55
2021/10/18 03:53:50;;;;;;;27.70;17.20;;;9.50;99.90;;;;;;5073544;28;20167;-55
2021/10/18 03:56:16;;;;;;;30.20;18.13;;;9.50;99.90;;;;;;5073228;28;20500;-56
2021/10/18 03:58:41;;;;;;;24.70;16.53;;;9.60;99.90;;;;;;5073394;28;20166;-57
2021/10/18 04:01:09;;;;;;;28.27;17.30;;;9.60;99.90;;;;;;5073409;28;20195;-56
2021/10/18 04:03:36;;;;;;;28.90;19.03;;;9.70;99.90;;;;;;5074123;28;20159;-56
2021/10/18 04:06:02;;;;;;;38.90;21.97;;;9.80;99.90;;;;;;5073666;28;20771;-55
2021/10/18 04:08:30;;;;;;;38.97;24.17;;;9.60;99.90;;;;;;5073392;28;20406;-56
2021/10/18 04:10:56;;;;;;;30.20;20.73;;;9.60;99.90;;;;;;5072993;28;20455;-57
2021/10/18 04:13:22;;;;;;;33.20;21.73;;;9.80;99.90;;;;;;5073101;28;20414;-52
2021/10/18 04:15:47;;;;;;;31.70;22.00;;;10.00;99.90;;;;;;5073422;28;20558;-56
2021/10/18 04:18:13;;;;;;;33.17;20.97;;;10.10;99.90;;;;;;5073497;28;20169;-53
2021/10/18 04:20:38;;;;;;;35.53;22.60;;;10.10;99.90;;;;;;5073540;28;20662;-56
2021/10/18 04:23:04;;;;;;;29.03;19.23;;;10.10;99.90;;;;;;5074243;28;20171;-56
2021/10/18 04:25:30;;;;;;;40.63;24.30;;;10.00;99.90;;;;;;5072910;28;20630;-56
2021/10/18 04:27:56;;;;;;;36.63;21.10;;;10.00;99.90;;;;;;5073140;28;20169;-56
2021/10/18 04:30:21;;;;;;;36.37;22.67;;;10.10;99.90;;;;;;5072963;28;20447;-57
2021/10/18 04:32:47;;;;;;;35.57;21.57;;;10.00;99.90;;;;;;5073488;28;20257;-57
2021/10/18 04:35:13;;;;;;;37.40;21.50;;;9.90;99.90;;;;;;5073660;28;20732;-55
2021/10/18 04:37:38;;;;;;;36.77;21.60;;;9.90;99.90;;;;;;5074129;28;20530;-52
2021/10/18 04:40:05;;;;;;;34.87;21.90;;;10.00;99.90;;;;;;5073316;28;20170;-55
2021/10/18 04:42:31;;;;;;;32.57;22.20;;;10.00;99.90;;;;;;5073031;28;20184;-56
2021/10/18 04:44:56;;;;;;;30.47;19.20;;;10.00;99.90;;;;;;5075303;28;20403;-54
2021/10/18 04:47:22;;;;;;;31.27;19.60;;;10.00;99.90;;;;;;5077231;28;20170;-54
2021/10/18 04:49:48;;;;;;;25.37;17.93;;;10.10;99.90;;;;;;5077322;28;20634;-53
2021/10/18 04:52:13;;;;;;;34.50;23.07;;;10.20;99.90;;;;;;5077214;28;20197;-56
2021/10/18 04:54:39;;;;;;;32.53;19.60;;;10.20;99.90;;;;;;5077172;28;20453;-56
2021/10/18 04:57:05;;;;;;;30.17;20.83;;;10.30;99.90;;;;;;5076694;28;20161;-56
2021/10/18 04:59:30;;;;;;;35.33;23.50;;;10.30;99.90;;;;;;5076975;28;20287;-56
2021/10/18 05:01:56;;;;;;;42.20;24.33;;;10.40;99.90;;;;;;5076845;28;20216;-54
2021/10/18 05:04:21;;;;;;;36.40;22.30;;;10.40;99.90;;;;;;5077124;28;20527;-56
2021/10/18 05:06:47;;;;;;;30.87;21.23;;;10.30;99.90;;;;;;5076878;28;20166;-55
2021/10/18 05:09:12;;;;;;;37.07;22.43;;;10.40;99.90;;;;;;5076637;28;20179;-56
2021/10/18 05:11:38;;;;;;;33.63;20.70;;;10.30;99.90;;;;;;5076232;28;20237;-56
2021/10/18 05:14:03;;;;;;;37.10;22.13;;;10.30;99.90;;;;;;5076336;28;20165;-56
2021/10/18 05:16:29;;;;;;;32.73;22.43;;;10.40;99.90;;;;;;5076507;28;20492;-57
2021/10/18 05:18:55;;;;;;;30.50;20.40;;;10.50;99.90;;;;;;5076553;28;20166;-56
2021/10/18 05:21:20;;;;;;;35.90;21.87;;;10.50;99.90;;;;;;5076900;28;20193;-52
2021/10/18 05:23:46;;;;;;;34.10;22.20;;;10.50;99.90;;;;;;5076906;28;20160;-56
2021/10/18 05:26:11;;;;;;;34.50;23.13;;;10.60;99.90;;;;;;5076037;28;20536;-51
2021/10/18 05:28:37;;;;;;;37.00;23.97;;;10.50;99.90;;;;;;5076099;28;20189;-50
2021/10/18 05:31:03;;;;;;;39.17;23.30;;;10.40;99.90;;;;;;5076143;28;20281;-50
2021/10/18 05:33:28;;;;;;;41.47;24.53;;;10.40;99.90;;;;;;5076695;28;20250;-54
2021/10/18 05:35:54;;;;;;;39.87;23.77;;;10.30;99.90;;;;;;5076233;28;20190;-53
2021/10/18 05:38:20;;;;;;;38.43;23.97;;;10.30;99.90;;;;;;5076322;28;20188;-55
2021/10/18 05:40:51;;;;;;;38.17;25.77;;;10.30;99.90;;;;;;5076060;28;20189;-52
2021/10/18 05:43:16;;;;;;;35.10;21.77;;;10.20;99.90;;;;;;5085848;28;20401;-54
2021/10/18 05:45:42;;;;;;;31.43;21.17;;;10.20;99.90;;;;;;5097374;28;20437;-51
2021/10/18 05:48:07;;;;;;;38.33;22.87;;;10.30;99.90;;;;;;5097817;28;20627;-51
2021/10/18 05:50:37;;;;;;;36.80;23.47;;;10.40;99.90;;;;;;5098518;28;20187;-52
2021/10/18 05:53:03;;;;;;;37.63;23.63;;;10.50;99.90;;;;;;5097641;28;20248;-51
2021/10/18 05:55:29;;;;;;;36.07;23.10;;;10.40;99.90;;;;;;5097449;28;21037;-60
2021/10/18 05:57:56;;;;;;;36.37;23.63;;;10.50;99.90;;;;;;5100002;28;20942;-54
2021/10/18 06:00:23;;;;;;;36.53;22.47;;;10.50;99.90;;;;;;5097728;28;20181;-52
2021/10/18 06:02:49;;;;;;;31.23;20.73;;;10.60;99.90;;;;;;5096941;28;20392;-52
2021/10/18 06:05:16;;;;;;;35.77;22.00;;;10.70;99.90;;;;;;5102169;28;20415;-57
2021/10/18 06:07:42;;;;;;;31.30;19.10;;;10.70;99.90;;;;;;5097465;28;20498;-56
2021/10/18 06:10:09;;;;;;;35.53;22.90;;;10.70;99.90;;;;;;5095547;28;20464;-56
2021/10/18 06:12:35;;;;;;;34.03;20.50;;;10.70;99.90;;;;;;5095975;28;20644;-55
2021/10/18 06:15:02;;;;;;;37.47;23.60;;;10.70;99.90;;;;;;5095816;28;20479;-53
2021/10/18 06:17:28;;;;;;;28.67;19.03;;;10.60;99.90;;;;;;5096302;28;20480;-53
2021/10/18 06:19:53;;;;;;;31.13;20.80;;;10.60;99.90;;;;;;5096412;28;20438;-54
2021/10/18 06:22:22;;;;;;;33.60;21.17;;;10.70;99.90;;;;;;5096980;28;20208;-54
2021/10/18 06:24:49;;;;;;;36.13;23.30;;;10.60;99.90;;;;;;5096490;28;20166;-54
2021/10/18 06:27:16;;;;;;;28.93;19.40;;;10.40;99.90;;;;;;5095764;28;20494;-57
2021/10/18 06:29:42;;;;;;;31.40;20.90;;;10.40;99.90;;;;;;5095987;28;20411;-57
2021/10/18 06:32:07;;;;;;;27.63;18.17;;;10.30;99.90;;;;;;5091719;28;20961;-52
2021/10/18 06:34:33;;;;;;;33.07;19.40;;;10.40;99.90;;;;;;5094581;28;20170;-51
2021/10/18 06:36:59;;;;;;;33.60;23.07;;;10.40;99.90;;;;;;5106157;28;20172;-53
2021/10/18 06:39:24;;;;;;;32.10;22.30;;;10.40;99.90;;;;;;5116318;28;20563;-54
2021/10/18 06:41:50;;;;;;;29.17;21.03;;;10.50;99.90;;;;;;5100988;28;20429;-53
2021/10/18 06:44:15;;;;;;;28.57;20.07;;;10.60;99.90;;;;;;5095432;28;20178;-53
2021/10/18 06:46:41;;;;;;;29.10;20.33;;;10.80;99.90;;;;;;5095859;28;20170;-57
2021/10/18 06:49:07;;;;;;;26.80;19.00;;;10.90;99.90;;;;;;5095539;28;20172;-56
2021/10/18 06:51:36;;;;;;;33.93;21.43;;;11.10;99.90;;;;;;5095012;28;20213;-55
2021/10/18 06:54:03;;;;;;;23.20;16.80;;;11.10;99.90;;;;;;5094894;28;20631;-53
2021/10/18 06:56:28;;;;;;;25.47;18.00;;;11.20;99.90;;;;;;5094532;28;20446;-55
2021/10/18 06:58:54;;;;;;;26.83;18.33;;;11.20;99.90;;;;;;5094867;28;20398;-57
2021/10/18 07:01:19;;;;;;;25.33;18.57;;;11.10;99.90;;;;;;5094674;28;20224;-56
2021/10/18 07:03:45;;;;;;;28.00;18.10;;;11.20;99.90;;;;;;5094595;28;20197;-56
2021/10/18 07:06:10;;;;;;;24.93;17.27;;;11.30;99.90;;;;;;5094883;28;20168;-54
2021/10/18 07:08:36;;;;;;;28.47;19.23;;;11.30;99.90;;;;;;5094255;28;20249;-55
2021/10/18 07:11:02;;;;;;;28.73;20.17;;;11.40;99.90;;;;;;5093891;28;20232;-50
2021/10/18 07:13:27;;;;;;;28.60;20.50;;;11.30;99.90;;;;;;5094743;28;20170;-56
2021/10/18 07:15:53;;;;;;;26.90;19.47;;;11.40;99.90;;;;;;5094176;28;20237;-57
2021/10/18 07:18:18;;;;;;;23.60;18.30;;;11.30;99.90;;;;;;5093989;28;20165;-56
2021/10/18 07:20:44;;;;;;;26.80;18.13;;;11.10;99.90;;;;;;5094531;28;20185;-57
2021/10/18 07:23:11;;;;;;;23.30;17.67;;;11.10;99.90;;;;;;5094390;28;20169;-56
2021/10/18 07:25:39;;;;;;;26.97;18.50;;;11.10;99.90;;;;;;5094342;28;20159;-54
2021/10/18 07:28:06;;;;;;;27.10;19.63;;;11.10;99.90;;;;;;5093982;28;20410;-57
2021/10/18 07:30:33;;;;;;;31.43;20.57;;;11.20;99.90;;;;;;5093900;28;20449;-57
2021/10/18 07:32:59;;;;;;;25.60;17.27;;;11.10;99.90;;;;;;5094599;28;20436;-57
2021/10/18 07:35:30;;;;;;;31.70;20.30;;;11.10;99.90;;;;;;5094548;28;20442;-55
2021/10/18 07:37:58;;;;;;;29.47;21.17;;;11.00;99.90;;;;;;5094476;28;20150;-57
2021/10/18 07:40:24;;;;;;;27.60;20.33;;;11.00;99.90;;;;;;5075764;28;20519;-55
2021/10/18 07:42:50;;;;;;;30.10;21.77;;;11.10;99.90;;;;;;5094062;28;20502;-56
2021/10/18 07:45:15;;;;;;;27.80;19.43;;;11.20;99.90;;;;;;5075830;28;20240;-55
2021/10/18 07:47:43;;;;;;;29.90;20.43;;;11.10;99.90;;;;;;5096432;28;20206;-52
2021/10/18 07:50:12;;;;;;;29.77;20.33;;;11.20;99.90;;;;;;5093724;28;20530;-53
2021/10/18 07:52:39;;;;;;;28.37;20.97;;;11.10;99.90;;;;;;5093601;28;20403;-53
2021/10/18 07:55:12;;;;;;;26.77;20.23;;;11.00;99.90;;;;;;5093956;28;20490;-52
2021/10/18 07:57:40;;;;;;;29.33;22.50;;;11.10;99.90;;;;;;5093873;28;20389;-52
2021/10/18 08:00:06;;;;;;;29.17;20.80;;;11.10;99.90;;;;;;5093452;28;20464;-52
2021/10/18 08:02:32;;;;;;;25.20;19.13;;;11.20;99.90;;;;;;5093694;28;20400;-56
2021/10/18 08:04:57;;;;;;;26.83;20.47;;;11.10;99.90;;;;;;5093910;28;20468;-57
2021/10/18 08:07:27;;;;;;;28.70;21.27;;;11.20;99.90;;;;;;5093682;28;20165;-55
2021/10/18 08:09:53;;;;;;;30.90;21.10;;;11.20;99.90;;;;;;5093993;28;20226;-55
2021/10/18 08:12:19;;;;;;;24.10;18.93;;;11.00;99.90;;;;;;5092974;28;20447;-57
2021/10/18 08:14:45;;;;;;;30.10;22.20;;;11.10;99.90;;;;;;5093224;28;20988;-56
2021/10/18 08:17:10;;;;;;;25.07;19.30;;;11.00;99.90;;;;;;5093477;28;20169;-55
2021/10/18 08:19:36;;;;;;;28.30;21.17;;;11.10;99.90;;;;;;5092666;28;20178;-54
2021/10/18 08:22:01;;;;;;;29.77;22.03;;;11.10;99.90;;;;;;5093731;28;20280;-57
2021/10/18 08:24:27;;;;;;;28.93;20.80;;;11.10;99.90;;;;;;5093431;28;20240;-57
2021/10/18 08:26:53;;;;;;;26.43;20.57;;;10.90;99.90;;;;;;5093507;28;20193;-57
2021/10/18 08:29:18;;;;;;;25.97;20.23;;;11.20;99.90;;;;;;5093557;28;20245;-53
2021/10/18 08:31:44;;;;;;;27.80;21.20;;;11.40;99.90;;;;;;5093610;28;20682;-52
2021/10/18 08:34:10;;;;;;;26.00;20.63;;;11.50;99.90;;;;;;5093735;28;20210;-52
2021/10/18 08:36:37;;;;;;;26.13;20.70;;;11.50;99.90;;;;;;5093610;28;20191;-53
2021/10/18 08:41:51;;;;;;;25.53;20.87;;;11.70;99.90;;;;;;5093118;28;20420;-52
2021/10/18 08:44:17;;;;;;;27.40;23.37;;;11.60;99.90;;;;;;5093031;28;20918;-52
2021/10/18 08:46:52;;;;;;;27.03;21.60;;;11.60;99.90;;;;;;5093397;28;20816;-56
2021/10/18 08:49:19;;;;;;;27.40;21.73;;;11.60;99.90;;;;;;5093921;28;20784;-52
2021/10/18 08:51:45;;;;;;;31.57;23.00;;;11.80;99.90;;;;;;5093180;28;20423;-55
2021/10/18 08:54:10;;;;;;;26.73;21.97;;;11.50;99.90;;;;;;5093905;28;20414;-51
2021/10/18 08:56:37;;;;;;;30.43;24.63;;;11.40;99.90;;;;;;5093461;28;20261;-56
2021/10/18 08:59:04;;;;;;;26.50;20.57;;;11.10;99.90;;;;;;5104036;28;20254;-52
2021/10/18 09:01:46;;;;;;;30.70;22.97;;;11.00;99.90;;;;;;5113490;28;20787;-53
2021/10/18 09:04:24;;;;;;;32.40;24.53;;;10.90;99.90;;;;;;5113765;28;20371;-55
2021/10/18 09:06:51;;;;;;;29.27;22.27;;;11.10;99.90;;;;;;5113727;28;20383;-54
2021/10/18 09:09:20;;;;;;;29.27;23.20;;;11.10;99.90;;;;;;5103655;28;20434;-55
2021/10/18 09:11:47;;;;;;;30.33;23.20;;;11.30;99.90;;;;;;5080528;23;20542;-52
2021/10/18 09:14:14;;;;;;;30.33;23.23;;;11.10;99.90;;;;;;5053769;28;20401;-55
2021/10/18 09:16:42;;;;;;;28.63;22.47;;;11.00;99.90;;;;;;5052813;28;20506;-51
2021/10/18 09:19:22;;;;;;;29.57;22.30;;;11.00;99.90;;;;;;5070769;28;20412;-53
2021/10/18 09:21:50;;;;;;;27.23;21.97;;;11.00;99.90;;;;;;5072716;28;20459;-54
2021/10/18 09:24:38;;;;;;;26.70;21.40;;;10.80;99.90;;;;;;5072629;28;20484;-52
2021/10/18 09:27:17;;;;;;;28.67;22.33;;;10.90;99.90;;;;;;5072194;28;20393;-53
2021/10/18 09:29:49;;;;;;;24.87;20.03;;;11.20;99.90;;;;;;5067049;28;20403;-50
2021/10/18 09:32:29;;;;;;;29.97;21.70;;;11.40;99.90;;;;;;5056284;28;20763;-52
2021/10/18 09:35:05;;;;;;;26.37;21.43;;;11.50;99.90;;;;;;5056144;28;20883;-53
2021/10/18 09:37:39;;;;;;;30.13;22.17;;;11.60;99.90;;;;;;5055975;28;20404;-50
2021/10/18 09:40:05;;;;;;;28.17;22.80;;;11.70;99.90;;;;;;5055862;28;20397;-55
2021/10/18 09:42:30;;;;;;;25.00;20.83;;;11.60;99.90;;;;;;5039708;28;20433;-50
2021/10/18 10:52:40;;;;;;;24.07;20.87;;;12.70;99.90;;;;;;5034804;28;20998;-54
2021/10/18 10:55:31;;;;;;;25.57;20.30;;;13.00;99.90;;;;;;5035484;28;20445;-51
2021/10/18 10:57:59;;;;;;;24.07;20.00;;;12.90;99.90;;;;;;5034327;28;20397;-53
2021/10/18 11:00:40;;;;;;;25.90;21.50;;;13.20;99.90;;;;;;5034483;28;20391;-53
2021/10/18 11:03:30;;;;;;;22.90;18.97;;;13.60;99.90;;;;;;5033388;28;20395;-52
2021/10/18 11:06:07;;;;;;;23.53;20.00;;;13.90;99.90;;;;;;5038495;28;20416;-55
2021/10/18 11:08:44;;;;;;;21.67;19.37;;;14.50;99.90;;;;;;5074094;28;20482;-56
2021/10/18 11:11:18;;;;;;;21.37;18.03;;;15.50;99.90;;;;;;5064374;28;20823;-52
2021/10/18 11:13:54;;;;;;;19.87;17.70;;;16.10;99.90;;;;;;5034664;28;20470;-53
2021/10/18 11:16:23;;;;;;;19.83;17.73;;;16.60;99.90;;;;;;5033588;28;20440;-56
2021/10/18 11:18:54;;;;;;;21.50;18.17;;;16.90;99.90;;;;;;5034235;28;20503;-55
2021/10/18 11:21:20;;;;;;;19.10;17.10;;;17.10;99.90;;;;;;5034405;28;20806;-55
2021/10/18 11:24:10;;;;;;;20.83;17.60;;;17.80;99.90;;;;;;5034233;28;20415;-55
2021/10/18 11:26:37;;;;;;;19.77;17.60;;;18.40;99.90;;;;;;5033794;28;20162;-54
2021/10/18 11:29:07;;;;;;;19.77;16.50;;;19.70;99.90;;;;;;5034056;28;20552;-53
2021/10/18 11:31:41;;;;;;;19.17;17.10;;;19.70;99.80;;;;;;5033816;28;20422;-53
2021/10/18 11:34:12;;;;;;;17.93;16.10;;;20.60;98.80;;;;;;5033942;28;20390;-55
2021/10/18 11:36:45;;;;;;;17.70;15.90;;;21.20;97.30;;;;;;5032897;28;20450;-57
2021/10/18 11:39:14;;;;;;;17.67;15.80;;;20.40;97.30;;;;;;5034367;28;20386;-55
2021/10/18 11:41:58;;;;;;;17.40;15.60;;;21.10;96.90;;;;;;5033596;28;20512;-51
2021/10/18 11:44:42;;;;;;;16.60;14.27;;;20.90;97.10;;;;;;5043736;28;20409;-60
2021/10/18 11:47:32;;;;;;;18.53;16.63;;;22.30;96.10;;;;;;5054157;28;20421;-50
2021/10/18 11:50:07;;;;;;;17.73;16.00;;;21.90;94.70;;;;;;5053906;28;20382;-55
2021/10/18 11:52:38;;;;;;;17.63;15.73;;;21.20;95.90;;;;;;5053897;28;20444;-53
2021/10/18 11:55:07;;;;;;;18.27;16.43;;;21.40;95.60;;;;;;5052775;28;20432;-53
2021/10/18 11:57:33;;;;;;;17.63;15.83;;;21.00;95.80;;;;;;5039188;28;20413;-56
2021/10/18 12:00:00;;;;;;;18.97;17.00;;;21.40;95.90;;;;;;5033513;28;20403;-55
2021/10/18 12:02:26;;;;;;;19.73;17.70;;;22.10;94.90;;;;;;5033691;28;20269;-55
2021/10/18 12:04:59;;;;;;;22.20;18.40;;;23.20;93.30;;;;;;5044957;28;20558;-53
2021/10/18 12:07:48;;;;;;;17.57;15.70;;;23.80;92.10;;;;;;5054407;28;20647;-55
2021/10/18 12:10:22;;;;;;;17.23;15.10;;;24.20;91.10;;;;;;5057640;28;20515;-56
2021/10/18 12:13:14;;;;;;;18.10;16.30;;;24.90;90.70;;;;;;5036205;28;20853;-53
2021/10/18 12:16:02;;;;;;;18.00;16.17;;;23.40;90.70;;;;;;5033623;28;20488;-52
2021/10/18 12:18:30;;;;;;;19.77;17.83;;;23.50;90.80;;;;;;5034120;28;20378;-56
2021/10/18 12:21:00;;;;;;;19.13;17.23;;;23.00;91.20;;;;;;5033666;28;20434;-54
2021/10/18 12:23:35;;;;;;;17.80;16.07;;;22.50;92.30;;;;;;5059146;28;20502;-51
2021/10/18 12:26:24;;;;;;;16.33;14.80;;;22.00;92.50;;;;;;5073702;28;20400;-49
2021/10/18 12:28:53;;;;;;;18.33;16.53;;;23.20;91.20;;;;;;5073207;28;20467;-55
2021/10/18 12:31:26;;;;;;;16.57;14.97;;;22.90;90.90;;;;;;5073235;28;20424;-63
2021/10/18 12:34:06;;;;;;;17.10;15.30;;;23.80;90.90;;;;;;5073414;28;20750;-53
2021/10/18 12:36:53;;;;;;;17.93;16.17;;;25.50;87.00;;;;;;5073274;28;20857;-51
2021/10/18 12:39:43;;;;;;;16.37;14.77;;;24.50;86.70;;;;;;5065731;28;20436;-53
2021/10/18 12:42:33;;;;;;;18.03;16.23;;;24.10;87.80;;;;;;5046833;28;20453;-54
2021/10/18 12:45:11;;;;;;;18.33;16.43;;;23.50;88.20;;;;;;5029310;28;20771;-52
2021/10/18 12:47:39;;;;;;;16.37;14.77;;;23.50;87.60;;;;;;5033303;28;20767;-51
2021/10/18 12:50:06;;;;;;;17.30;15.60;;;21.70;91.30;;;;;;5033309;28;20748;-49
2021/10/18 12:52:35;;;;;;;18.37;16.63;;;22.10;90.50;;;;;;5033142;28;20480;-49
2021/10/18 12:55:10;;;;;;;18.70;15.93;;;22.20;91.00;;;;;;5032896;28;20448;-50
2021/10/18 12:57:35;;;;;;;16.90;15.13;;;21.80;91.10;;;;;;5032685;28;20424;-51
2021/10/18 13:00:11;;;;;;;17.33;14.90;;;22.10;90.90;;;;;;5060104;28;20821;-52
2021/10/18 13:02:39;;;;;;;17.23;15.53;;;22.50;90.80;;;;;;5073400;28;20185;-51
2021/10/18 13:05:15;;;;;;;16.73;15.03;;;23.00;90.50;;;;;;5074083;28;20407;-51
2021/10/18 13:07:51;;;;;;;16.43;14.37;;;24.30;86.90;;;;;;5077024;28;20443;-52
2021/10/18 13:10:17;;;;;;;16.77;14.97;;;23.00;89.30;;;;;;5077413;28;20392;-52
2021/10/18 13:12:44;;;;;;;15.17;13.67;;;22.10;90.40;;;;;;5041136;28;20445;-52
2021/10/18 13:15:12;;;;;;;15.60;14.10;;;22.40;90.90;;;;;;5035205;28;20456;-52
2021/10/18 13:17:38;;;;;;;14.97;13.30;;;23.20;90.20;;;;;;5036433;28;20406;-50
2021/10/18 13:20:06;;;;;;;15.57;13.30;;;23.70;88.70;;;;;;5036629;28;20776;-51
2021/10/18 13:22:31;;;;;;;16.13;14.43;;;23.60;87.90;;;;;;5036672;28;20433;-51
2021/10/18 13:24:57;;;;;;;14.07;12.77;;;22.80;88.90;;;;;;5036315;28;20398;-51
2021/10/18 13:27:23;;;;;;;16.50;14.80;;;22.80;90.30;;;;;;5035875;28;20168;-55
2021/10/18 13:29:48;;;;;;;18.83;16.83;;;23.10;88.80;;;;;;5036001;28;20164;-56
2021/10/18 13:32:15;;;;;;;18.60;16.60;;;21.10;91.00;;;;;;5035517;28;20656;-54
2021/10/18 13:34:42;;;;;;;15.50;14.00;;;20.40;92.50;;;;;;5036241;28;20155;-56
2021/10/18 13:37:08;;;;;;;17.80;14.87;;;20.40;92.60;;;;;;5035769;28;20459;-55
2021/10/18 13:39:33;;;;;;;17.20;15.43;;;20.30;93.00;;;;;;5035885;28;20910;-50
2021/10/18 13:41:59;;;;;;;16.53;14.93;;;20.50;93.20;;;;;;5035743;28;20294;-53
2021/10/18 13:44:25;;;;;;;16.17;13.03;;;21.10;93.00;;;;;;5036289;28;20282;-55